BA359 / G-EUPY 7700 Squawk Report (15th of February, 2020)

Aircraft A319 Reg No. G-EUPY Age 19 years old
Model A319 Jet engines 2 First flight 13-03-01
Registered 12-04-01 Rollout 03-01 Delivered 12-04-01
Construction No. 1466 Line No. N/A Series 131
ADSHEX 4008F2 Airline name British Airways Owner N/A
Airfield based Heathrow~Gtr London~G First tracked N/A

Flight history for G-EUPY

Route Flight No Date Playback
Edinburgh (EDI) - Heathrow (LHR) BA9252 2020-03-23 11:22:00
Geneve Cointrin (GVA) - Heathrow (LHR) BA735 2020-03-16 03:20:00
Heathrow (LHR) - Geneve Cointrin (GVA) BA734 2020-03-15 17:11:00
Manchester (MAN) - Heathrow (LHR) BA1395 2020-03-15 12:06:00
Heathrow (LHR) - Manchester (MAN) BA1390 2020-03-15 10:24:00
Belfast City (BHD) - Heathrow (LHR) BA1431 2020-03-15 09:29:00
Heathrow (LHR) - Belfast City (BHD) BA1420 2020-03-14 18:37:00
Dyce (ABZ) - Heathrow (LHR) BA1309 2020-03-14 17:23:00
Heathrow (LHR) - Dyce (ABZ) BA1308 2020-03-14 14:02:00
Manchester (MAN) - Heathrow (LHR) BA1389 2020-03-14 12:28:00
Heathrow (LHR) - Manchester (MAN) BA1386 2020-03-14 08:48:00
Barajas (MAD) - Heathrow (LHR) BA463 2020-03-13 21:04:00
Heathrow (LHR) - Barajas (MAD) BA462 2020-03-13 19:12:00
Glasgow (GLA) - Heathrow (LHR) BA1491 2020-03-13 12:54:00
Heathrow (LHR) - Glasgow (GLA) BA1490 2020-03-12 17:43:00
???? N/A 2020-03-11 07:15:00
Copenhagen Airport (CPH) - Heathrow (LHR) BA809 2020-03-10 17:59:00
Heathrow (LHR) - Copenhagen Airport (CPH) BA808 2020-03-10 12:13:00
Glasgow (GLA) - Heathrow (LHR) BA1475 2020-03-08 08:22:00
Heathrow (LHR) - Glasgow (GLA) BA1492 2020-03-07 19:00:00
Time Lat Lon Altitude Heading Speed Vertical Rate
2020-02-15 17:51:45 GMT 45.735901 5.091828 575 175 121 -192
2020-02-15 17:51:42 GMT 45.737961 5.091560 625 175 119 -640
2020-02-15 17:51:32 GMT 45.742813 5.090957 725 175 118 -640
2020-02-15 17:51:20 GMT 45.749359 5.090153 850 174 118 -640
2020-02-15 17:51:15 GMT 45.752151 5.089751 900 175 118 -512
2020-02-15 17:51:11 GMT 45.754623 5.089550 950 175 118 -832
2020-02-15 17:51:05 GMT 45.757874 5.089149 1,000 174 119 -640
2020-02-15 17:51:00 GMT 45.760345 5.088814 1,050 174 120 -768
2020-02-15 17:50:51 GMT 45.765179 5.088181 1,150 175 120 -576
2020-02-15 17:50:41 GMT 45.771240 5.087541 1,275 174 120 -448
2020-02-15 17:50:33 GMT 45.775700 5.086945 1,350 175 120 -704
2020-02-15 17:50:25 GMT 45.779610 5.086464 1,375 175 121 -768
2020-02-15 17:50:17 GMT 45.784172 5.085983 1,525 175 119 -640
2020-02-15 17:50:09 GMT 45.788773 5.085397 1,600 174 119 -576
2020-02-15 17:50:03 GMT 45.792179 5.084953 1,675 174 119 -640
2020-02-15 17:50:00 GMT 45.793579 5.084727 1,700 174 119 -704
2020-02-15 17:49:54 GMT 45.796928 5.084335 1,775 175 120 -704
2020-02-15 17:49:42 GMT 45.803493 5.083580 1,925 174 119 -576
2020-02-15 17:49:34 GMT 45.807961 5.083031 2,000 175 118 -704
2020-02-15 17:49:27 GMT 45.811661 5.082584 2,075 175 117 -512
2020-02-15 17:49:24 GMT 45.813538 5.082383 2,100 175 116 -512
2020-02-15 17:49:19 GMT 45.816010 5.082048 2,125 175 117 -512
2020-02-15 17:49:15 GMT 45.819077 5.081713 2,200 175 118 -704
2020-02-15 17:49:09 GMT 45.821640 5.081378 2,250 175 118 -832
2020-02-15 17:48:59 GMT 45.827000 5.080765 2,375 175 119 -832
2020-02-15 17:48:53 GMT 45.830612 5.080306 2,450 175 126 -640
2020-02-15 17:48:44 GMT 45.835693 5.079636 2,550 174 130 -832
2020-02-15 17:48:27 GMT 45.845993 5.078362 2,750 175 132 -512
2020-02-15 17:48:21 GMT 45.849518 5.077961 2,775 175 131 0
2020-02-15 17:48:16 GMT 45.852722 5.077559 2,775 175 132 0
2020-02-15 17:48:08 GMT 45.857445 5.077057 2,750 175 132 64
2020-02-15 17:48:04 GMT 45.861008 5.076688 2,750 175 134 64
2020-02-15 17:47:59 GMT 45.864010 5.076302 2,725 174 136 64
2020-02-15 17:47:48 GMT 45.870434 5.075478 2,750 174 146 64
2020-02-15 17:47:37 GMT 45.878117 5.074448 2,750 174 148 -128
2020-02-15 17:47:27 GMT 45.884495 5.073692 2,775 175 146 64
2020-02-15 17:47:17 GMT 45.891357 5.072937 2,750 175 145 0
2020-02-15 17:47:13 GMT 45.894547 5.072594 2,750 175 146 -64
2020-02-15 17:47:07 GMT 45.898087 5.072182 2,775 175 145 -128
2020-02-15 17:47:02 GMT 45.902138 5.071701 2,800 174 146 -192
2020-02-15 17:46:57 GMT 45.905228 5.071262 2,800 172 146 -128
2020-02-15 17:46:47 GMT 45.912189 5.069916 2,900 171 159 -1024
2020-02-15 17:46:37 GMT 45.919601 5.068047 3,100 167 175 -704
2020-02-15 17:46:27 GMT 45.927795 5.065166 3,175 158 194 -896
2020-02-15 17:46:22 GMT 45.931698 5.062775 3,275 138 207 -1536
2020-02-15 17:46:11 GMT 45.939972 5.053778 3,550 138 208 -1472
2020-02-15 17:46:06 GMT 45.943939 5.048698 3,675 138 211 -1536
2020-02-15 17:45:59 GMT 45.949310 5.041854 3,850 138 213 -1280
2020-02-15 17:45:56 GMT 45.950867 5.039777 3,900 138 215 -1216
2020-02-15 17:45:45 GMT 45.958923 5.029595 4,075 138 223 -832
2020-02-15 17:45:42 GMT 45.961956 5.025764 4,125 138 226 -896
2020-02-15 17:45:35 GMT 45.966751 5.019680 4,200 138 231 -768
2020-02-15 17:45:30 GMT 45.971313 5.013954 4,275 138 240 -640
2020-02-15 17:45:24 GMT 45.976013 5.008049 4,325 138 243 -576
2020-02-15 17:45:21 GMT 45.979038 5.004204 4,350 138 249 -448
2020-02-15 17:45:16 GMT 45.983276 4.998779 4,400 137 262 -576
2020-02-15 17:45:11 GMT 45.987167 4.993755 4,450 137 261 -576
2020-02-15 17:45:04 GMT 45.993423 4.985664 4,525 138 269 -896
2020-02-15 17:44:54 GMT 46.002876 4.973511 4,675 137 276 -704
2020-02-15 17:44:48 GMT 46.010193 4.964146 4,725 138 277 -576
2020-02-15 17:44:45 GMT 46.012184 4.961632 4,775 138 281 -1088
2020-02-15 17:44:39 GMT 46.017288 4.955035 4,900 138 282 -1536
2020-02-15 17:44:34 GMT 46.022568 4.948242 5,050 138 281 -1728
2020-02-15 17:44:31 GMT 46.025406 4.944603 5,125 138 282 -1408
2020-02-15 17:44:24 GMT 46.031891 4.936412 5,275 138 284 -1344
2020-02-15 17:44:20 GMT 46.035919 4.931321 5,375 138 285 -1472
2020-02-15 17:44:15 GMT 46.042442 4.923042 5,550 138 286 -1600
2020-02-15 17:44:10 GMT 46.045807 4.918726 5,650 138 286 -1664
2020-02-15 17:44:04 GMT 46.051849 4.910956 5,800 138 286 -1664
2020-02-15 17:44:01 GMT 46.055283 4.906601 5,900 138 286 -1600
2020-02-15 17:43:54 GMT 46.061920 4.898027 6,075 138 286 -1472
2020-02-15 17:43:50 GMT 46.065445 4.893471 6,175 138 287 -1408
2020-02-15 17:43:44 GMT 46.072128 4.884897 6,325 138 288 -1536
2020-02-15 17:43:40 GMT 46.075974 4.880006 6,425 138 288 -1664
2020-02-15 17:43:37 GMT 46.078903 4.876255 6,525 138 288 -1536
2020-02-15 17:43:34 GMT 46.082291 4.871968 6,600 138 289 -1472
2020-02-15 17:43:30 GMT 46.085922 4.867287 6,675 138 290 -1472
2020-02-15 17:43:23 GMT 46.093002 4.858302 6,875 138 291 -1536
2020-02-15 17:43:20 GMT 46.096024 4.854483 6,950 138 292 -1472
2020-02-15 17:43:15 GMT 46.100601 4.848655 7,050 138 293 -1408
2020-02-15 17:43:10 GMT 46.106232 4.841420 7,200 138 293 -1600
2020-02-15 17:43:07 GMT 46.109528 4.837200 7,275 138 294 -1536
2020-02-15 17:43:02 GMT 46.114086 4.831375 7,375 138 295 -1408
2020-02-15 17:42:58 GMT 46.119186 4.824807 7,500 138 297 -1216
2020-02-15 17:42:52 GMT 46.124313 4.818242 7,600 138 298 -1280
2020-02-15 17:42:47 GMT 46.129349 4.811811 7,700 138 300 -1344
2020-02-15 17:42:43 GMT 46.134293 4.805489 7,825 138 301 -1600
2020-02-15 17:42:37 GMT 46.139877 4.798279 7,950 138 301 -1664
2020-02-15 17:42:32 GMT 46.150444 4.784615 8,175 138 303 -1472
2020-02-15 17:42:27 GMT 46.150444 4.784615 8,225 138 303 -1408
2020-02-15 17:42:23 GMT 46.155193 4.778503 8,325 138 303 -1344
2020-02-15 17:42:17 GMT 46.160965 4.771156 8,400 138 305 -1280
2020-02-15 17:42:12 GMT 46.166199 4.764449 8,550 138 308 -1280
2020-02-15 17:42:07 GMT 46.171417 4.757750 8,650 138 308 -1472
2020-02-15 17:42:02 GMT 46.176956 4.750582 8,800 137 310 -1728
2020-02-15 17:41:57 GMT 46.182705 4.743141 8,950 138 310 -1792
2020-02-15 17:41:46 GMT 46.193645 4.728996 9,250 137 310 -1728
2020-02-15 17:41:37 GMT 46.203873 4.715814 9,525 138 311 -1664
2020-02-15 17:41:26 GMT 46.214874 4.701599 9,775 138 313 -1472
2020-02-15 17:41:19 GMT 46.223190 4.690827 9,975 138 318 -1536
2020-02-15 17:41:16 GMT 46.225891 4.687344 10,050 138 315 -1664
2020-02-15 17:41:05 GMT 46.238102 4.671593 10,275 138 316 -1536
2020-02-15 17:40:56 GMT 46.248184 4.658672 10,575 138 319 -1600
2020-02-15 17:40:48 GMT 46.257339 4.646949 10,800 138 320 -1664
2020-02-15 17:40:45 GMT 46.259983 4.643509 10,875 138 320 -1728
2020-02-15 17:40:40 GMT 46.265663 4.636162 11,000 138 321 -1728
2020-02-15 17:40:37 GMT 46.268780 4.632111 11,100 138 321 -1728
2020-02-15 17:40:29 GMT 46.277664 4.620756 11,325 138 322 -1664
2020-02-15 17:40:25 GMT 46.282745 4.614191 11,450 137 324 -1344
2020-02-15 17:40:20 GMT 46.289078 4.605949 11,575 137 324 -1280
2020-02-15 17:40:17 GMT 46.291489 4.602803 11,650 137 326 -1344
2020-02-15 17:40:14 GMT 46.295151 4.597979 11,700 137 327 -1408
2020-02-15 17:40:07 GMT 46.302998 4.587822 11,900 138 327 -1856
2020-02-15 17:40:04 GMT 46.306351 4.583427 11,975 138 327 -1920
2020-02-15 17:39:59 GMT 46.311844 4.576355 12,125 138 327 -1920
2020-02-15 17:39:56 GMT 46.315147 4.572098 12,225 138 327 -1920
2020-02-15 17:39:46 GMT 46.326324 4.557919 12,550 138 327 -1856
2020-02-15 17:39:43 GMT 46.330090 4.553009 12,650 138 327 -1792
2020-02-15 17:39:36 GMT 46.338097 4.542641 12,825 138 329 -1408
2020-02-15 17:39:32 GMT 46.341961 4.537628 12,900 138 330 -1408
2020-02-15 17:39:26 GMT 46.349396 4.527975 13,050 137 332 -1344
2020-02-15 17:39:22 GMT 46.353561 4.522549 13,150 137 334 -1344
2020-02-15 17:39:18 GMT 46.358208 4.516548 13,225 138 338 -1216
2020-02-15 17:39:15 GMT 46.361618 4.512098 13,275 138 336 -1216
2020-02-15 17:39:11 GMT 46.366123 4.506248 13,350 138 338 -1216
2020-02-15 17:39:06 GMT 46.372650 4.497830 13,475 137 340 -1472
2020-02-15 17:39:00 GMT 46.379517 4.488853 13,625 138 341 -1600
2020-02-15 17:38:56 GMT 46.384277 4.482697 13,725 138 342 -1408
2020-02-15 17:38:51 GMT 46.389725 4.475656 13,850 138 343 -1344
2020-02-15 17:38:45 GMT 46.396271 4.467215 13,975 138 344 -1344
2020-02-15 17:38:40 GMT 46.402451 4.459176 14,100 138 345 -1344
2020-02-15 17:38:35 GMT 46.408577 4.451248 14,200 138 345 -1280
2020-02-15 17:38:30 GMT 46.414856 4.443166 14,325 138 344 -1280
2020-02-15 17:38:25 GMT 46.420681 4.435593 14,425 138 344 -1216
2020-02-15 17:38:19 GMT 46.427151 4.427216 14,550 138 343 -1152
2020-02-15 17:38:15 GMT 46.432877 4.419937 14,625 139 343 -1088
2020-02-15 17:38:09 GMT 46.439209 4.412150 14,725 141 343 -1280
2020-02-15 17:38:04 GMT 46.445572 4.405451 14,825 148 342 -1344
2020-02-15 17:37:59 GMT 46.453503 4.399132 14,950 156 338 -1344
2020-02-15 17:37:54 GMT 46.460670 4.394943 15,075 160 337 -1344
2020-02-15 17:37:48 GMT 46.468689 4.391651 15,200 168 334 -1408
2020-02-15 17:37:44 GMT 46.474960 4.389999 15,300 172 332 -1408
2020-02-15 17:37:38 GMT 46.484364 4.388695 15,425 175 331 -1280
2020-02-15 17:37:33 GMT 46.491531 4.387966 15,525 176 332 -1216
2020-02-15 17:37:28 GMT 46.500423 4.387321 15,650 178 332 -1152
2020-02-15 17:37:24 GMT 46.505966 4.387253 15,700 182 331 -1216
2020-02-15 17:37:17 GMT 46.517120 4.388971 15,875 193 325 -1280
2020-02-15 17:37:14 GMT 46.520966 4.390378 15,925 196 323 -1280
2020-02-15 17:37:06 GMT 46.531429 4.396248 16,275 221 311 -1280
2020-02-15 17:37:03 GMT 46.535248 4.399355 16,150 215 314 -1280
2020-02-15 17:36:57 GMT 46.543159 4.408127 16,275 228 308 -1280
2020-02-15 17:36:54 GMT 46.546051 4.412284 16,350 231 307 -1280
2020-02-15 17:36:44 GMT 46.554100 4.429413 16,550 246 304 -1344
2020-02-15 17:36:33 GMT 46.558548 4.450133 16,800 262 304 -1280
2020-02-15 17:36:26 GMT 46.558960 4.466478 16,925 283 304 -320
2020-02-15 17:36:23 GMT 46.558731 4.469828 16,950 280 304 -512
2020-02-15 17:36:15 GMT 46.556007 4.485992 17,000 291 304 -64
2020-02-15 17:36:12 GMT 46.554611 4.490868 17,000 296 305 0
2020-02-15 17:36:03 GMT 46.547104 4.507811 16,975 313 308 0
2020-02-15 17:35:53 GMT 46.536255 4.521477 17,000 329 313 -128
2020-02-15 17:35:43 GMT 46.523575 4.532061 17,025 331 314 0
2020-02-15 17:35:35 GMT 46.512405 4.541038 17,000 331 316 0
2020-02-15 17:35:32 GMT 46.510437 4.542646 17,000 331 316 0
2020-02-15 17:35:25 GMT 46.501144 4.550149 17,000 331 316 0
2020-02-15 17:35:22 GMT 46.497070 4.553498 17,000 331 316 0
2020-02-15 17:35:12 GMT 46.484505 4.563721 17,000 331 316 0
2020-02-15 17:35:04 GMT 46.473888 4.572372 17,000 331 315 0
2020-02-15 17:35:01 GMT 46.470863 4.574844 17,000 331 316 0
2020-02-15 17:34:54 GMT 46.458206 4.585117 17,000 331 316 0
2020-02-15 17:34:41 GMT 46.445343 4.595568 17,000 331 316 0
2020-02-15 17:34:34 GMT 46.435730 4.603338 17,000 331 316 0
2020-02-15 17:34:23 GMT 46.422310 4.614258 17,000 331 317 0
2020-02-15 17:34:19 GMT 46.416538 4.618927 17,000 331 317 0
2020-02-15 17:34:13 GMT 46.409683 4.624507 17,000 331 318 0
2020-02-15 17:34:09 GMT 46.404480 4.628746 17,000 331 319 0
2020-02-15 17:34:04 GMT 46.396362 4.635360 17,000 331 319 0
2020-02-15 17:33:59 GMT 46.391121 4.639664 17,000 331 319 0
2020-02-15 17:33:51 GMT 46.380600 4.648247 17,000 331 318 0
2020-02-15 17:33:43 GMT 46.370956 4.656126 17,000 331 318 64
2020-02-15 17:33:38 GMT 46.364456 4.661486 17,000 331 318 64
2020-02-15 17:33:33 GMT 46.357452 4.667180 17,000 331 318 0
2020-02-15 17:33:28 GMT 46.350990 4.672485 17,000 331 319 0
2020-02-15 17:33:23 GMT 46.344635 4.677764 17,000 331 320 -64
2020-02-15 17:33:20 GMT 46.341171 4.680519 17,025 331 321 -64
2020-02-15 17:33:17 GMT 46.337910 4.683266 17,025 331 321 -64
2020-02-15 17:33:13 GMT 46.332138 4.687947 17,025 331 322 -64
2020-02-15 17:33:10 GMT 46.328041 4.691368 17,025 331 323 0
2020-02-15 17:33:06 GMT 46.323715 4.694914 17,025 331 325 64
2020-02-15 17:33:03 GMT 46.318546 4.699265 17,025 331 326 64
2020-02-15 17:32:56 GMT 46.310444 4.705994 17,000 330 332 64
2020-02-15 17:32:53 GMT 46.305542 4.710120 17,000 330 336 64
2020-02-15 17:32:49 GMT 46.301285 4.713671 17,000 330 353 -64
2020-02-15 17:32:45 GMT 46.295593 4.718422 16,975 330 345 -64
2020-02-15 17:32:42 GMT 46.291080 4.722267 17,000 330 348 -64
2020-02-15 17:32:39 GMT 46.287140 4.725595 17,000 330 350 -128
2020-02-15 17:32:36 GMT 46.282467 4.729477 17,000 330 353 -64
2020-02-15 17:32:33 GMT 46.277252 4.733902 17,025 330 353 0
2020-02-15 17:32:29 GMT 46.273132 4.737385 17,025 330 354 0
2020-02-15 17:32:25 GMT 46.267384 4.742180 17,025 330 353 0
2020-02-15 17:32:22 GMT 46.262741 4.746027 17,000 330 353 64
2020-02-15 17:32:17 GMT 46.248390 4.757973 17,000 331 353 0
2020-02-15 17:32:12 GMT 46.243973 4.761635 17,000 331 353 0
2020-02-15 17:32:05 GMT 46.238522 4.766144 17,000 331 354 -64
2020-02-15 17:32:02 GMT 46.234055 4.769783 17,000 331 355 -128
2020-02-15 17:31:59 GMT 46.229919 4.773225 17,025 331 354 -64
2020-02-15 17:31:54 GMT 46.223190 4.778718 17,000 331 354 512
2020-02-15 17:31:51 GMT 46.218506 4.782555 16,975 331 353 896
2020-02-15 17:31:48 GMT 46.214176 4.786057 16,925 331 354 1024
2020-02-15 17:31:41 GMT 46.200577 4.797073 16,750 331 354 1024
2020-02-15 17:31:38 GMT 46.190109 4.805489 16,700 331 354 1024
2020-02-15 17:31:31 GMT 46.190109 4.805489 16,625 331 354 1024
2020-02-15 17:31:25 GMT 46.181171 4.812698 16,450 331 352 1024
2020-02-15 17:31:21 GMT 46.175537 4.817237 16,450 331 352 1024
2020-02-15 17:31:18 GMT 46.171116 4.820801 16,400 331 351 1024
2020-02-15 17:31:11 GMT 46.161484 4.828558 16,325 331 351 1024
2020-02-15 17:31:08 GMT 46.157055 4.832130 16,250 331 351 1024
2020-02-15 17:31:05 GMT 46.153286 4.835220 16,200 331 350 1024
2020-02-15 17:31:00 GMT 46.146698 4.840616 16,125 331 350 960
2020-02-15 17:30:56 GMT 46.140808 4.845383 16,050 331 349 1024
2020-02-15 17:30:52 GMT 46.134106 4.850876 15,975 331 349 1024
2020-02-15 17:30:47 GMT 46.128471 4.855476 15,900 331 349 960
2020-02-15 17:30:44 GMT 46.123211 4.859734 15,850 331 348 960
2020-02-15 17:30:41 GMT 46.118000 4.864059 15,775 331 348 960
2020-02-15 17:30:37 GMT 46.114426 4.867010 15,750 331 349 960
2020-02-15 17:30:33 GMT 46.105865 4.874044 15,650 331 348 1024
2020-02-15 17:30:30 GMT 46.103714 4.875853 15,625 331 348 1024
2020-02-15 17:30:27 GMT 46.099640 4.879202 15,575 331 348 960
2020-02-15 17:30:20 GMT 46.084621 4.891663 15,400 331 347 960
2020-02-15 17:30:10 GMT 46.075588 4.899078 15,300 331 345 960
2020-02-15 17:30:07 GMT 46.071491 4.902443 15,250 331 344 960
2020-02-15 17:30:04 GMT 46.068008 4.905329 15,200 331 344 960
2020-02-15 17:30:00 GMT 46.061764 4.910477 15,150 331 343 960
2020-02-15 17:29:54 GMT 46.053383 4.917343 15,025 331 342 1024
2020-02-15 17:29:49 GMT 46.045578 4.923751 14,925 331 340 1024
2020-02-15 17:29:44 GMT 46.039326 4.928879 14,850 331 340 1024
2020-02-15 17:29:41 GMT 46.030060 4.936479 14,750 331 339 1024
2020-02-15 17:29:36 GMT 46.030060 4.936479 14,750 331 339 1024
2020-02-15 17:29:33 GMT 46.024662 4.940895 14,675 331 339 1024
2020-02-15 17:29:29 GMT 46.019669 4.944986 14,600 331 338 1024
2020-02-15 17:29:24 GMT 46.012932 4.950439 14,575 331 338 1024
2020-02-15 17:29:21 GMT 46.009068 4.953667 14,475 331 337 1024
2020-02-15 17:29:17 GMT 46.004333 4.957514 14,425 331 337 1024
2020-02-15 17:29:14 GMT 45.999523 4.961426 14,350 330 337 1024
2020-02-15 17:29:11 GMT 45.995544 4.964748 14,300 330 336 1024
2020-02-15 17:29:08 GMT 45.991470 4.968165 14,250 330 337 1024
2020-02-15 17:29:04 GMT 45.981628 4.976338 14,125 330 338 1024
2020-02-15 17:29:01 GMT 45.981628 4.976338 14,125 330 338 1024
2020-02-15 17:28:58 GMT 45.974121 4.982635 14,025 330 338 1024
2020-02-15 17:28:52 GMT 45.969772 4.986252 13,950 330 339 1024
2020-02-15 17:28:49 GMT 45.964657 4.990540 13,925 330 338 960
2020-02-15 17:28:46 GMT 45.961258 4.993355 13,875 330 338 1024
2020-02-15 17:28:41 GMT 45.954620 4.998913 13,800 330 338 960
2020-02-15 17:28:37 GMT 45.949402 5.003268 13,725 330 337 960
2020-02-15 17:28:33 GMT 45.944092 5.007756 13,675 330 336 960
2020-02-15 17:28:30 GMT 45.940353 5.010864 13,625 330 336 1024
2020-02-15 17:28:24 GMT 45.931046 5.018692 13,500 330 336 1024
2020-02-15 17:28:16 GMT 45.921036 5.027069 13,375 330 334 1024
2020-02-15 17:28:10 GMT 45.913879 5.033078 13,300 330 334 1024
2020-02-15 17:28:05 GMT 45.906696 5.039085 13,200 330 333 1024
2020-02-15 17:28:01 GMT 45.900414 5.044304 13,100 330 334 1024
2020-02-15 17:27:55 GMT 45.893059 5.050415 13,025 330 334 960
2020-02-15 17:27:51 GMT 45.886959 5.055496 12,925 330 335 1024
2020-02-15 17:27:48 GMT 45.882797 5.059003 12,900 330 336 1024
2020-02-15 17:27:42 GMT 45.874969 5.065501 12,800 330 337 1088
2020-02-15 17:27:39 GMT 45.871536 5.068382 12,750 330 336 1088
2020-02-15 17:27:34 GMT 45.865402 5.073540 12,675 330 336 1024
2020-02-15 17:27:29 GMT 45.852280 5.084541 12,525 330 336 960
2020-02-15 17:27:24 GMT 45.852280 5.084541 12,500 330 336 960
2020-02-15 17:27:20 GMT 45.845856 5.089952 12,425 330 335 960
2020-02-15 17:27:17 GMT 45.841759 5.093330 12,375 330 335 960
2020-02-15 17:27:12 GMT 45.835876 5.098192 12,300 331 336 1024
2020-02-15 17:27:09 GMT 45.831070 5.102145 12,250 331 335 1024
2020-02-15 17:27:06 GMT 45.828163 5.104591 12,225 331 335 1024
2020-02-15 17:27:03 GMT 45.823418 5.108437 12,150 331 334 1024
2020-02-15 17:27:00 GMT 45.819180 5.111870 12,100 331 334 1024
2020-02-15 17:26:55 GMT 45.811569 5.118088 12,000 331 333 1024
2020-02-15 17:26:52 GMT 45.809326 5.119897 12,000 331 332 960
2020-02-15 17:26:49 GMT 45.803398 5.124710 11,925 331 330 704
2020-02-15 17:26:44 GMT 45.797653 5.129342 11,875 331 330 512
2020-02-15 17:26:41 GMT 45.794174 5.132156 11,850 331 329 384
2020-02-15 17:26:38 GMT 45.789989 5.135559 11,825 331 328 384
2020-02-15 17:26:35 GMT 45.785522 5.139190 11,800 331 327 384
2020-02-15 17:26:31 GMT 45.780762 5.143075 11,750 331 324 896
2020-02-15 17:26:28 GMT 45.776962 5.146157 11,725 331 320 1024
2020-02-15 17:26:23 GMT 45.770859 5.151077 11,650 331 314 1408
2020-02-15 17:26:20 GMT 45.766438 5.154648 11,550 331 309 1600
2020-02-15 17:26:17 GMT 45.762726 5.157612 11,475 331 307 1728
2020-02-15 17:26:13 GMT 45.757870 5.161514 11,350 331 301 2048
2020-02-15 17:26:09 GMT 45.753216 5.165222 11,275 331 299 2176
2020-02-15 17:26:05 GMT 45.748978 5.168587 11,075 331 293 2496
2020-02-15 17:26:02 GMT 45.744930 5.171883 10,925 331 290 2624
2020-02-15 17:25:58 GMT 45.739380 5.176302 10,700 331 285 3008
2020-02-15 17:25:55 GMT 45.729614 5.184174 10,525 342 286 3712
2020-02-15 17:25:49 GMT 45.725052 5.187881 10,100 331 282 4224
2020-02-15 17:25:45 GMT 45.725052 5.187881 9,925 331 282 4224
2020-02-15 17:25:42 GMT 45.722122 5.190169 9,750 332 283 4032
2020-02-15 17:25:39 GMT 45.718048 5.193318 9,525 333 283 3840
2020-02-15 17:25:35 GMT 45.713879 5.196259 9,300 339 285 3648
2020-02-15 17:25:32 GMT 45.710155 5.198250 9,100 344 286 3712
2020-02-15 17:25:27 GMT 45.703499 5.200584 8,875 351 287 3648
2020-02-15 17:25:22 GMT 45.697083 5.201356 8,500 0 289 3456
2020-02-15 17:25:17 GMT 45.689392 5.200653 8,175 8 289 3584
2020-02-15 17:25:11 GMT 45.683350 5.198945 7,875 15 288 3904
2020-02-15 17:25:08 GMT 45.679092 5.197136 7,650 21 287 4160
2020-02-15 17:25:05 GMT 45.675201 5.194925 7,025 29 288 4480
2020-02-15 17:25:01 GMT 45.669937 5.190973 7,100 31 288 4544
2020-02-15 17:24:56 GMT 45.660278 5.179317 6,550 47 290 4288
2020-02-15 17:24:51 GMT 45.660278 5.179317 6,400 48 291 4160
2020-02-15 17:24:44 GMT 45.654617 5.168037 5,925 60 290 3776
2020-02-15 17:24:41 GMT 45.652756 5.162819 5,750 67 288 3584
2020-02-15 17:24:36 GMT 45.650475 5.153549 5,450 76 284 3328
2020-02-15 17:24:31 GMT 45.649246 5.144415 5,175 99 265 2304
2020-02-15 17:24:26 GMT 45.649311 5.131165 4,875 97 266 2368
2020-02-15 17:24:19 GMT 45.650482 5.122911 4,675 119 240 1984
2020-02-15 17:24:15 GMT 45.651993 5.116949 4,550 113 247 2048
2020-02-15 17:24:05 GMT 45.657852 5.104489 4,125 152 199 1984
2020-02-15 17:23:55 GMT 45.665863 5.096584 3,925 159 193 2176
2020-02-15 17:23:52 GMT 45.667885 5.095528 3,825 166 185 2304
2020-02-15 17:23:48 GMT 45.671356 5.094508 3,675 173 179 2432
2020-02-15 17:23:43 GMT 45.675797 5.093905 3,450 175 172 2560
2020-02-15 17:23:36 GMT 45.681618 5.093262 3,150 175 164 2176
2020-02-15 17:23:33 GMT 45.683487 5.093101 3,100 176 162 2176
2020-02-15 17:23:27 GMT 45.687927 5.092632 2,825 175 154 2432
2020-02-15 17:23:24 GMT 45.689903 5.092438 1,200 175 140 3200
2020-02-15 17:23:17 GMT 45.694885 5.091888 2,425 175 147 2368
2020-02-15 17:23:13 GMT 45.701729 5.091202 1,200 175 140 3200
2020-02-15 17:23:07 GMT 45.701729 5.091202 2,000 175 141 2240
2020-02-15 17:22:55 GMT 45.709259 5.090287 1,450 175 139 3264
2020-02-15 17:22:50 GMT 45.712418 5.089952 1,200 175 143 2816
2020-02-15 17:22:47 GMT 45.714432 5.089751 1,050 175 144 2752
2020-02-15 17:22:42 GMT 45.717880 5.089348 850 175 146 2432
2020-02-15 17:22:12 GMT 45.734631 5.087408 0 174 55
2020-02-15 17:21:55 GMT 45.736290 5.087189 0 174 0
2020-02-15 17:21:40 GMT 45.736294 5.087185 0 174 0
2020-02-15 17:21:28 GMT 45.736290 5.087189 0 174 0
2020-02-15 17:21:19 GMT 45.736359 5.087189 0 174 6
2020-02-15 17:21:09 GMT 45.736629 5.087082 0 115 8
2020-02-15 17:21:00 GMT 45.736759 5.086569 0 104 12
2020-02-15 17:20:49 GMT 45.736935 5.085657 0 104 14
2020-02-15 17:20:39 GMT 45.737080 5.084828 0 106 14

Making use of Plane Finder data

You are free to use the raw flight data, aircraft information and images provided in this report for your own purposes provided the data is correctly attributed to Plane Finder. We ask that you please credit Plane Finder and link to planefinder.net in close proximity to the content.

Optionally one of the following logos (no smaller then 150x24px) can be used and must link to planefinder.net

Embedding the Plane Finder map

You are welcome to embed the Plane Finder playback map on your website to offer visitors a more interactive experience. We suggest using the following HTML code:

<iframe src="//planefinder.net/data/report/BA359-G-EUPY-7700-squawk-2020-02-15/map" width="800" height="600" seamless="seamless"></iframe>

Where our data comes from

Plane Finder has a global network of data feeds and antenna radars that receive data broadcast directly from aircraft. The primary technologies used are ADS-B and MLAT. We also show feeds from the FAA and a FLARM glider feed.

Click here to find out more about the Plane Finder network.

How we collect our data